Time;durP1;ratioP1;P1;durP2;ratioP2;P2;SDS_P1;SDS_P2;PMS_P1;PMS_P2;Temp;Humidity;BMP_temperature;BMP_pressure;BME280_temperature;BME280_humidity;BME280_pressure;Samples;Min_cycle;Max_cycle;Signal;HPM_P1;HPM_P2
2022/09/26 00:01:24;;;;;;;;;5.00;5.00;;;;;22.16;51.16;100067.16;110480;1264;14712;-58
2022/09/26 00:03:51;;;;;;;;;5.00;5.00;;;;;22.16;51.10;100065.74;110463;1265;14469;-57
2022/09/26 00:06:18;;;;;;;;;5.00;5.00;;;;;22.16;51.06;100058.91;110483;1265;13598;-59
2022/09/26 00:08:46;;;;;;;;;3.00;3.00;;;;;22.14;51.15;100052.05;110456;1264;12542;-57
2022/09/26 00:11:13;;;;;;;;;3.00;3.00;;;;;22.14;51.17;100047.34;110445;1264;14391;-58
2022/09/26 00:13:41;;;;;;;;;5.33;5.33;;;;;22.14;51.13;100042.23;110433;1264;14124;-59
2022/09/26 00:16:09;;;;;;;;;7.00;6.00;;;;;22.13;51.17;100041.13;110476;1263;14122;-58
2022/09/26 00:18:36;;;;;;;;;4.00;3.00;;;;;22.12;51.17;100038.23;110442;1265;14257;-56
2022/09/26 00:21:04;;;;;;;;;3.67;3.67;;;;;22.12;51.16;100035.33;110484;1265;12987;-60
2022/09/26 00:23:31;;;;;;;;;5.00;4.33;;;;;22.12;51.15;100036.65;110462;1265;14083;-59
2022/09/26 00:25:59;;;;;;;;;5.00;5.00;;;;;22.13;51.11;100036.95;110400;1262;13189;-59
2022/09/26 00:28:26;;;;;;;;;6.33;6.00;;;;;22.13;51.22;100038.36;110417;1265;14702;-57
2022/09/26 00:30:53;;;;;;;;;5.50;5.00;;;;;22.13;51.13;100037.77;110447;1264;14632;-56
2022/09/26 00:33:21;;;;;;;;;5.00;5.00;;;;;22.13;51.09;100038.16;110470;1265;13210;-58
2022/09/26 00:35:48;;;;;;;;;6.00;5.33;;;;;22.13;51.10;100036.55;110377;1265;13075;-61
2022/09/26 00:38:16;;;;;;;;;5.00;5.00;;;;;22.13;51.14;100034.02;110395;1264;13148;-57
2022/09/26 00:40:43;;;;;;;;;5.67;5.33;;;;;22.14;51.12;100033.86;110474;1265;14103;-58
2022/09/26 00:43:11;;;;;;;;;6.00;5.00;;;;;22.15;51.00;100030.52;110454;1264;14655;-53
2022/09/26 00:45:38;;;;;;;;;6.67;6.67;;;;;22.16;51.12;100032.14;110438;1264;14419;-58
2022/09/26 00:48:06;;;;;;;;;7.00;6.00;;;;;22.15;51.10;100029.42;110470;1264;13039;-58
2022/09/26 00:50:33;;;;;;;;;5.00;5.00;;;;;22.14;51.14;100030.00;110441;1264;14736;-58
2022/09/26 00:53:01;;;;;;;;;7.00;6.00;;;;;22.14;51.10;100025.27;110443;1262;14548;-58
2022/09/26 00:55:29;;;;;;;;;6.00;6.00;;;;;22.15;51.11;100026.64;110445;1265;14051;-57
2022/09/26 00:57:57;;;;;;;;;4.33;4.33;;;;;22.15;51.05;100023.20;110455;1264;14027;-58
2022/09/26 01:00:24;;;;;;;;;3.00;3.00;;;;;22.15;51.06;100021.19;110441;1264;13840;-57
2022/09/26 01:02:51;;;;;;;;;4.33;4.33;;;;;22.15;51.06;100025.27;110496;1265;13258;-58
2022/09/26 01:05:19;;;;;;;;;3.67;3.67;;;;;22.14;51.04;100020.23;110464;1262;13636;-58
2022/09/26 01:07:46;;;;;;;;;6.67;5.00;;;;;22.14;51.05;100017.99;110446;1263;12955;-58
2022/09/26 01:10:15;;;;;;;;;5.33;5.00;;;;;22.15;51.10;100019.81;110459;1262;12514;-58
2022/09/26 01:12:42;;;;;;;;;3.00;3.00;;;;;22.13;51.04;100017.03;110466;1264;14524;-59
2022/09/26 01:15:10;;;;;;;;;5.00;5.00;;;;;22.14;51.05;100013.84;110516;1264;12939;-58
2022/09/26 01:17:37;;;;;;;;;5.00;5.00;;;;;22.12;51.08;100010.40;110470;1262;14844;-59
2022/09/26 01:20:05;;;;;;;;;4.33;3.67;;;;;22.13;51.11;100003.64;110417;1265;15469;-55
2022/09/26 01:22:32;;;;;;;;;5.00;5.00;;;;;22.12;51.10;100001.20;110460;1265;13074;-57
2022/09/26 01:25:00;;;;;;;;;5.00;5.00;;;;;22.12;51.10;99999.05;110467;1264;12716;-57
2022/09/26 01:27:27;;;;;;;;;6.00;4.33;;;;;22.11;51.10;99994.52;110445;1262;14816;-59
2022/09/26 01:29:55;;;;;;;;;6.00;5.00;;;;;22.11;51.04;99997.41;110466;1264;13152;-55
2022/09/26 01:35:07;;;;;;;;;4.33;4.33;;;;;22.12;51.00;99997.84;110431;1265;13552;-59
2022/09/26 01:37:35;;;;;;;;;3.00;3.00;;;;;22.12;51.05;100000.14;110440;1263;14425;-57
2022/09/26 01:40:03;;;;;;;;;7.00;6.00;;;;;22.12;51.03;99996.97;110434;1262;13299;-59
2022/09/26 01:42:30;;;;;;;;;6.00;6.00;;;;;22.12;51.05;99988.30;110438;1263;13146;-57
2022/09/26 01:44:57;;;;;;;;;5.00;4.33;;;;;22.11;51.00;99986.36;110477;1263;13210;-58
2022/09/26 01:47:25;;;;;;;;;6.00;6.00;;;;;22.12;50.97;99984.27;110436;1265;14004;-57
2022/09/26 01:49:52;;;;;;;;;5.00;5.00;;;;;22.11;51.00;99980.69;110455;1263;14239;-56
2022/09/26 01:52:20;;;;;;;;;6.00;5.00;;;;;22.12;50.98;99979.15;110447;1264;13964;-56
2022/09/26 01:54:47;;;;;;;;;5.67;5.67;;;;;22.12;51.00;99979.66;110444;1264;14079;-57
2022/09/26 01:57:14;;;;;;;;;4.33;4.33;;;;;22.12;50.95;99973.58;110502;1264;12828;-56
2022/09/26 01:59:42;;;;;;;;;5.00;5.00;;;;;22.12;50.97;99973.77;110434;1262;15069;-57
2022/09/26 02:02:09;;;;;;;;;6.00;6.00;;;;;22.11;50.94;99972.59;110439;1264;14783;-58
2022/09/26 02:04:37;;;;;;;;;5.00;5.00;;;;;22.11;50.95;99975.28;110424;1264;13995;-56
2022/09/26 02:07:04;;;;;;;;;6.67;6.33;;;;;22.11;50.95;99974.48;110453;1264;14044;-55
2022/09/26 02:09:32;;;;;;;;;6.00;5.00;;;;;22.12;50.99;99970.84;110423;1263;14219;-58
2022/09/26 02:12:00;;;;;;;;;5.00;5.00;;;;;22.11;50.98;99971.12;110497;1264;13078;-57
2022/09/26 02:14:27;;;;;;;;;5.00;5.00;;;;;22.12;50.91;99966.64;110430;1262;13018;-57
2022/09/26 02:16:54;;;;;;;;;5.50;5.50;;;;;22.11;50.94;99966.30;110443;1263;13132;-56
2022/09/26 02:19:22;;;;;;;;;5.00;5.00;;;;;22.12;50.96;99963.20;110443;1262;12946;-58
2022/09/26 02:21:50;;;;;;;;;5.00;5.00;;;;;22.11;50.89;99956.55;110480;1264;12642;-57
2022/09/26 02:24:18;;;;;;;;;6.00;6.00;;;;;22.11;50.91;99956.21;110508;1264;13201;-58
2022/09/26 02:26:45;;;;;;;;;4.33;4.33;;;;;22.10;50.90;99956.25;110446;1264;12919;-57
2022/09/26 02:29:12;;;;;;;;;5.50;5.00;;;;;22.11;50.89;99956.76;110479;1264;13180;-58
2022/09/26 02:31:40;;;;;;;;;6.67;5.67;;;;;22.10;50.87;99953.39;110453;1264;13102;-58
2022/09/26 02:34:07;;;;;;;;;5.50;5.50;;;;;22.10;50.97;99949.58;110447;1263;13123;-60
2022/09/26 02:36:35;;;;;;;;;5.00;5.00;;;;;22.11;50.90;99943.98;110429;1262;13355;-56
2022/09/26 02:39:03;;;;;;;;;6.00;5.33;;;;;22.10;50.85;99937.69;110497;1264;13087;-59
2022/09/26 02:41:30;;;;;;;;;5.00;5.00;;;;;22.10;50.90;99932.65;110469;1264;13493;-58
2022/09/26 02:43:58;;;;;;;;;4.33;4.33;;;;;22.10;50.89;99931.82;110412;1263;13690;-57
2022/09/26 02:46:25;;;;;;;;;6.00;6.00;;;;;22.10;50.92;99930.98;110349;1264;12816;-58
2022/09/26 02:48:52;;;;;;;;;6.00;6.00;;;;;22.11;50.90;99929.46;110446;1264;12693;-57
2022/09/26 02:51:20;;;;;;;;;5.00;5.00;;;;;22.11;50.80;99933.97;110507;1264;13023;-58
2022/09/26 02:53:48;;;;;;;;;7.00;7.00;;;;;22.11;50.81;99933.77;110517;1265;12805;-56
2022/09/26 02:56:15;;;;;;;;;5.00;5.00;;;;;22.09;50.81;99930.89;110449;1264;13009;-59
2022/09/26 02:58:43;;;;;;;;;5.00;3.00;;;;;22.09;50.86;99930.21;110453;1263;13099;-58
2022/09/26 03:01:10;;;;;;;;;5.33;5.00;;;;;22.10;50.84;99930.30;110462;1263;12993;-57
2022/09/26 03:03:38;;;;;;;;;5.00;5.00;;;;;22.10;50.79;99924.89;110470;1262;14182;-59
2022/09/26 03:06:05;;;;;;;;;6.00;5.00;;;;;22.09;50.87;99924.96;110506;1264;13100;-58
2022/09/26 03:08:33;;;;;;;;;7.00;6.33;;;;;22.10;50.80;99925.06;110474;1265;14466;-59
2022/09/26 03:11:01;;;;;;;;;6.00;5.00;;;;;22.08;50.84;99920.87;110429;1265;14334;-56
2022/09/26 03:13:29;;;;;;;;;5.00;5.00;;;;;22.09;50.81;99921.00;110499;1264;14306;-58
2022/09/26 03:15:56;;;;;;;;;5.67;5.67;;;;;22.09;50.86;99914.09;110424;1264;13880;-58
2022/09/26 03:18:24;;;;;;;;;4.33;4.33;;;;;22.08;50.86;99912.19;110456;1262;16991;-58
2022/09/26 03:20:52;;;;;;;;;5.00;5.00;;;;;22.07;50.84;99910.42;110489;1264;13188;-56
2022/09/26 03:23:20;;;;;;;;;5.67;5.00;;;;;22.05;50.87;99908.36;110496;1264;14494;-56
2022/09/26 03:25:48;;;;;;;;;5.00;5.00;;;;;22.07;50.78;99905.34;110446;1262;13494;-62
2022/09/26 03:28:15;;;;;;;;;3.00;3.00;;;;;22.07;50.82;99907.73;110491;1264;14243;-60
2022/09/26 03:30:43;;;;;;;;;6.00;6.00;;;;;22.07;50.80;99900.06;110402;1264;14126;-58
2022/09/26 03:33:10;;;;;;;;;6.00;5.00;;;;;22.08;50.75;99904.16;110442;1264;13052;-57
2022/09/26 03:35:38;;;;;;;;;6.00;6.00;;;;;22.09;50.81;99898.55;110408;1264;12903;-59
2022/09/26 03:38:05;;;;;;;;;6.00;6.00;;;;;22.07;50.73;99888.80;110480;1263;13099;-58
2022/09/26 03:40:33;;;;;;;;;6.00;6.00;;;;;22.06;50.78;99896.17;110437;1265;13100;-57
2022/09/26 03:43:00;;;;;;;;;5.00;5.00;;;;;22.08;50.77;99899.05;110450;1264;14791;-53
2022/09/26 03:45:28;;;;;;;;;6.33;6.00;;;;;22.09;50.76;99893.50;110474;1263;14850;-56
2022/09/26 03:47:56;;;;;;;;;6.00;6.00;;;;;22.07;50.76;99889.59;110511;1264;12658;-58
2022/09/26 03:50:23;;;;;;;;;5.00;5.00;;;;;22.07;50.77;99885.61;110452;1264;13480;-59
2022/09/26 03:52:51;;;;;;;;;6.00;6.00;;;;;22.08;50.71;99885.11;110432;1265;14266;-55
2022/09/26 03:55:18;;;;;;;;;5.00;5.00;;;;;22.07;50.69;99882.21;110430;1262;14128;-56
2022/09/26 03:57:46;;;;;;;;;5.00;5.00;;;;;22.07;50.72;99877.97;110434;1262;15104;-58
2022/09/26 04:00:13;;;;;;;;;5.00;5.00;;;;;22.07;50.70;99875.41;110456;1265;14147;-56
2022/09/26 04:02:41;;;;;;;;;7.00;6.00;;;;;22.07;50.67;99871.13;110458;1264;13477;-57
2022/09/26 04:05:08;;;;;;;;;6.50;6.00;;;;;22.08;50.66;99868.90;110454;1262;14326;-60
2022/09/26 04:07:36;;;;;;;;;6.00;6.00;;;;;22.07;50.65;99860.63;110428;1263;14194;-61
2022/09/26 04:10:03;;;;;;;;;9.00;6.00;;;;;22.08;50.63;99858.83;110452;1264;14136;-55
2022/09/26 04:12:31;;;;;;;;;6.50;6.00;;;;;22.06;50.68;99853.29;110433;1262;14276;-58
2022/09/26 04:14:58;;;;;;;;;6.00;6.00;;;;;22.07;50.63;99857.89;110496;1265;13035;-58
2022/09/26 04:17:26;;;;;;;;;6.00;6.00;;;;;22.05;50.65;99854.20;110436;1263;13046;-56
2022/09/26 04:19:53;;;;;;;;;5.67;5.67;;;;;22.04;50.69;99852.08;110450;1263;13085;-57
2022/09/26 04:22:21;;;;;;;;;7.00;6.00;;;;;22.04;50.71;99853.94;110506;1264;14154;-58
2022/09/26 04:24:48;;;;;;;;;6.00;5.50;;;;;22.04;50.68;99855.55;110455;1262;14353;-59
2022/09/26 04:27:15;;;;;;;;;7.67;6.00;;;;;22.05;50.67;99857.05;110484;1264;13178;-59
2022/09/26 04:29:43;;;;;;;;;5.00;5.00;;;;;22.04;50.66;99855.81;110445;1264;14182;-59
2022/09/26 04:32:11;;;;;;;;;6.00;6.00;;;;;22.04;50.62;99854.86;110516;1264;14392;-56
2022/09/26 04:34:39;;;;;;;;;7.00;5.33;;;;;22.04;50.67;99853.35;110429;1265;14200;-55
2022/09/26 04:37:08;;;;;;;;;6.00;6.00;;;;;22.04;50.58;99850.16;110491;1264;14434;-55
2022/09/26 04:39:36;;;;;;;;;3.00;3.00;;;;;22.04;50.67;99848.52;110431;1264;15336;-58
2022/09/26 04:42:03;;;;;;;;;7.00;6.33;;;;;22.04;50.67;99857.42;110442;1265;13017;-58
2022/09/26 04:44:31;;;;;;;;;7.00;6.00;;;;;22.04;50.66;99856.91;110423;1264;14219;-58
2022/09/26 04:46:58;;;;;;;;;5.33;5.33;;;;;22.04;50.69;99860.87;110410;1264;14503;-57
2022/09/26 04:49:27;;;;;;;;;7.00;7.00;;;;;22.03;50.63;99857.16;110436;1264;13308;-58
2022/09/26 04:51:55;;;;;;;;;6.00;5.67;;;;;22.04;50.61;99852.30;110371;1265;13345;-59
2022/09/26 04:54:22;;;;;;;;;7.00;6.00;;;;;22.03;50.55;99854.40;110380;1264;12805;-57
2022/09/26 04:56:50;;;;;;;;;6.67;6.67;;;;;22.04;50.61;99853.89;110452;1264;13183;-56
2022/09/26 04:59:17;;;;;;;;;6.00;5.33;;;;;22.07;50.64;99855.34;110449;1262;13177;-55
2022/09/26 05:01:44;;;;;;;;;6.00;6.00;;;;;22.12;50.81;99861.80;110439;1265;14136;-58
2022/09/26 05:04:12;;;;;;;;;5.67;5.33;;;;;22.15;51.52;99858.52;110401;1262;14596;-59
2022/09/26 05:06:40;;;;;;;;;6.50;6.00;;;;;22.19;52.62;99879.45;110394;1264;14460;-58
2022/09/26 05:09:07;;;;;;;;;6.00;6.00;;;;;22.20;52.76;99867.58;110441;1264;12964;-58
2022/09/26 05:11:35;;;;;;;;;6.33;6.33;;;;;22.19;52.94;99871.30;110402;1264;14586;-55
2022/09/26 05:14:02;;;;;;;;;6.00;5.00;;;;;22.18;52.96;99863.80;110447;1264;13282;-59
2022/09/26 05:16:30;;;;;;;;;6.33;5.67;;;;;22.18;52.95;99861.64;110450;1264;13755;-57
2022/09/26 05:18:57;;;;;;;;;5.67;5.67;;;;;22.18;52.92;99857.91;110437;1264;14719;-56
2022/09/26 05:21:25;;;;;;;;;5.00;5.00;;;;;22.18;52.89;99855.72;110487;1264;14557;-61
2022/09/26 05:26:37;;;;;;;;;9.00;6.33;;;;;22.18;52.80;99851.61;110433;1265;14770;-57
2022/09/26 05:29:05;;;;;;;;;7.00;7.00;;;;;22.18;52.76;99848.17;110418;1264;14353;-60
2022/09/26 05:31:35;;;;;;;;;8.00;6.00;;;;;22.18;52.69;99850.48;110400;1265;14366;-55
2022/09/26 05:34:04;;;;;;;;;5.00;5.00;;;;;22.18;52.72;99850.90;110445;1264;13062;-59
2022/09/26 05:36:31;;;;;;;;;5.33;5.00;;;;;22.17;52.77;99846.70;110404;1264;13168;-56
2022/09/26 05:38:59;;;;;;;;;7.00;7.00;;;;;22.16;52.78;99845.17;110482;1264;13162;-59
2022/09/26 05:41:27;;;;;;;;;7.00;6.00;;;;;22.14;52.53;99842.95;110446;1265;13152;-56
2022/09/26 05:43:54;;;;;;;;;6.00;5.00;;;;;22.17;52.50;99847.11;110448;1264;14477;-61
2022/09/26 05:46:22;;;;;;;;;6.00;6.00;;;;;22.17;52.38;99847.35;110504;1264;14663;-58
2022/09/26 05:48:49;;;;;;;;;9.00;6.00;;;;;22.18;52.40;99846.36;110441;1264;13820;-57
2022/09/26 05:51:17;;;;;;;;;6.00;6.00;;;;;22.19;52.37;99847.83;110481;1264;13099;-57
2022/09/26 05:53:44;;;;;;;;;7.67;7.00;;;;;22.18;52.38;99847.59;110426;1263;14209;-57
2022/09/26 05:56:11;;;;;;;;;9.00;9.00;;;;;22.17;52.24;99847.33;110473;1264;14801;-59
2022/09/26 05:58:39;;;;;;;;;6.00;5.00;;;;;22.17;52.25;99842.83;110474;1265;14411;-58
2022/09/26 06:01:06;;;;;;;;;7.00;6.33;;;;;22.18;52.29;99841.11;110456;1263;13428;-58
2022/09/26 06:03:34;;;;;;;;;7.00;7.00;;;;;22.17;52.30;99839.21;110428;1262;14824;-58
2022/09/26 06:06:02;;;;;;;;;6.00;6.00;;;;;22.16;52.32;99836.90;110590;1264;16460;-57
2022/09/26 06:08:29;;;;;;;;;6.33;6.00;;;;;22.21;52.24;99831.30;110398;1264;16758;-57
2022/09/26 06:10:57;;;;;;;;;6.00;6.00;;;;;22.23;52.31;99831.70;110349;1264;14319;-60
2022/09/26 06:13:24;;;;;;;;;8.33;8.33;;;;;22.23;52.21;99839.10;110461;1264;13591;-59
2022/09/26 06:15:52;;;;;;;;;9.00;9.00;;;;;22.20;52.23;99842.59;110489;1265;13518;-58
2022/09/26 06:18:19;;;;;;;;;10.00;9.00;;;;;22.18;52.15;99848.48;110442;1264;13151;-55
2022/09/26 06:20:47;;;;;;;;;7.67;7.00;;;;;22.15;52.44;99854.13;110483;1262;14889;-58
2022/09/26 06:23:14;;;;;;;;;6.00;6.00;;;;;22.15;52.34;99846.56;110469;1262;14885;-59
2022/09/26 06:25:41;;;;;;;;;6.00;6.00;;;;;22.15;52.15;99840.14;110447;1264;14747;-56
2022/09/26 06:28:09;;;;;;;;;10.00;10.00;;;;;22.16;52.18;99841.10;110465;1264;14039;-58
2022/09/26 06:30:36;;;;;;;;;15.67;14.00;;;;;22.11;52.23;99845.95;110479;1264;14345;-56
2022/09/26 06:33:04;;;;;;;;;21.33;19.33;;;;;22.03;51.80;99843.87;110501;1264;13144;-58
2022/09/26 06:35:32;;;;;;;;;22.00;20.00;;;;;21.93;51.32;99850.18;110412;1263;14479;-58
2022/09/26 06:37:59;;;;;;;;;28.00;25.00;;;;;21.86;50.88;99851.34;110459;1262;14696;-58
2022/09/26 06:40:27;;;;;;;;;20.33;20.00;;;;;21.79;50.20;99856.64;110415;1264;14512;-56
2022/09/26 06:42:55;;;;;;;;;30.00;25.50;;;;;21.72;50.09;99856.49;110374;1262;14477;-58
2022/09/26 06:45:24;;;;;;;;;31.67;29.67;;;;;21.72;49.84;99859.55;110397;1265;13181;-59
2022/09/26 06:47:51;;;;;;;;;31.00;30.00;;;;;21.68;49.33;99853.80;110426;1264;13381;-59
2022/09/26 06:50:19;;;;;;;;;28.00;27.00;;;;;21.65;48.96;99857.06;110435;1264;13752;-57
2022/09/26 06:52:46;;;;;;;;;36.33;30.00;;;;;21.66;48.91;99855.66;110453;1264;13139;-57
2022/09/26 06:55:14;;;;;;;;;34.33;30.33;;;;;21.63;48.79;99854.27;110398;1262;14079;-55
2022/09/26 06:57:41;;;;;;;;;24.00;24.00;;;;;21.61;48.70;99848.27;110477;1263;14660;-59
2022/09/26 07:00:08;;;;;;;;;22.00;20.00;;;;;21.71;48.96;99842.30;110417;1264;13196;-57
2022/09/26 07:02:36;;;;;;;;;20.67;19.33;;;;;21.83;49.03;99844.98;110365;1264;14997;-59
2022/09/26 07:05:04;;;;;;;;;31.50;27.00;;;;;21.92;48.97;99845.48;110403;1263;14765;-56
2022/09/26 07:07:31;;;;;;;;;31.00;25.00;;;;;21.92;48.77;99844.71;110459;1263;13117;-57
2022/09/26 07:09:59;;;;;;;;;24.67;23.33;;;;;21.89;48.73;99847.95;110445;1262;14452;-56
2022/09/26 07:12:27;;;;;;;;;29.00;26.33;;;;;21.86;48.73;99846.55;110528;1264;13212;-55
2022/09/26 07:14:54;;;;;;;;;36.33;33.00;;;;;21.84;48.57;99850.07;110533;1265;13110;-59
2022/09/26 07:17:22;;;;;;;;;34.00;29.33;;;;;21.83;48.28;99852.63;110406;1262;14772;-58
2022/09/26 07:19:49;;;;;;;;;35.00;28.67;;;;;21.83;48.24;99852.93;110448;1264;14678;-55
2022/09/26 07:22:16;;;;;;;;;35.67;33.67;;;;;21.81;48.25;99855.18;110422;1264;15317;-59
2022/09/26 07:24:45;;;;;;;;;32.50;29.00;;;;;21.78;48.12;99858.91;110465;1264;14661;-58
2022/09/26 07:27:13;;;;;;;;;31.00;30.00;;;;;21.82;48.14;99858.24;110550;1264;13126;-60
2022/09/26 07:29:40;;;;;;;;;30.67;27.67;;;;;21.78;47.89;99855.05;110453;1264;14522;-56
2022/09/26 07:32:08;;;;;;;;;31.00;29.33;;;;;21.76;47.89;99855.71;110459;1262;13197;-59
2022/09/26 07:34:35;;;;;;;;;32.50;30.00;;;;;21.73;47.89;99854.86;110294;1262;204982;-58
2022/09/26 07:37:03;;;;;;;;;31.33;31.00;;;;;21.72;47.88;99853.77;110406;1265;14222;-58
2022/09/26 07:39:30;;;;;;;;;35.00;32.33;;;;;21.74;47.90;99850.34;110436;1263;14246;-59
2022/09/26 07:42:00;;;;;;;;;30.00;29.50;;;;;21.78;47.88;99853.63;110449;1264;10521;-60
2022/09/26 07:44:28;;;;;;;;;35.00;33.33;;;;;21.87;47.64;99851.34;110403;1264;13475;-60
2022/09/26 07:52:26;;;;;;;;;50.00;42.33;;;;;21.55;47.56;99843.77;110446;1263;15072;-60
2022/09/26 07:54:53;;;;;;;;;51.67;43.00;;;;;21.47;47.68;99841.17;110401;1262;14022;-57
2022/09/26 07:57:21;;;;;;;;;52.33;43.00;;;;;21.32;47.80;99839.91;110483;1264;13258;-59
2022/09/26 07:59:49;;;;;;;;;51.00;44.00;;;;;21.20;48.02;99833.50;110391;1264;13892;-58
2022/09/26 08:02:17;;;;;;;;;50.50;42.50;;;;;21.16;48.34;99830.13;111468;1264;11625;-58
2022/09/26 08:04:44;;;;;;;;;55.67;44.33;;;;;21.29;48.39;99832.19;110423;1264;14253;-58
2022/09/26 08:07:12;;;;;;;;;61.00;47.67;;;;;21.14;48.73;99831.58;110427;1262;14002;-57
2022/09/26 08:09:39;;;;;;;;;51.33;42.67;;;;;21.20;48.63;99837.40;110456;1264;13281;-57
2022/09/26 08:12:07;;;;;;;;;48.00;43.00;;;;;21.10;48.95;99841.21;110487;1264;13188;-56
2022/09/26 08:14:34;;;;;;;;;52.67;43.33;;;;;21.06;49.03;99838.08;110447;1263;13701;-60
2022/09/26 08:17:02;;;;;;;;;45.33;41.33;;;;;21.20;48.94;99837.83;110431;1264;14640;-60
2022/09/26 08:19:29;;;;;;;;;47.00;41.00;;;;;21.20;48.79;99837.86;110420;1263;15227;-61
2022/09/26 08:21:57;;;;;;;;;45.67;41.67;;;;;20.94;49.13;99840.31;110408;1264;14522;-55
2022/09/26 08:24:25;;;;;;;;;49.00;42.00;;;;;20.92;49.27;99837.70;110502;1264;13228;-60
2022/09/26 08:26:52;;;;;;;;;38.67;37.67;;;;;20.90;49.54;99836.14;110376;1263;13261;-59
2022/09/26 08:29:20;;;;;;;;;48.00;41.67;;;;;21.01;49.16;99832.18;110418;1264;16919;-60
2022/09/26 08:31:48;;;;;;;;;39.50;38.00;;;;;21.16;48.91;99828.66;110426;1263;14729;-56
2022/09/26 08:34:15;;;;;;;;;44.00;39.33;;;;;21.28;48.71;99828.65;110430;1264;14163;-59
2022/09/26 08:36:43;;;;;;;;;38.67;34.67;;;;;21.34;48.57;99823.27;110394;1264;14896;-58
2022/09/26 08:39:10;;;;;;;;;44.00;38.33;;;;;21.31;48.70;99823.68;110459;1264;13455;-57
2022/09/26 08:41:38;;;;;;;;;35.67;35.00;;;;;21.37;48.77;99826.91;110388;1264;14694;-59
2022/09/26 08:44:05;;;;;;;;;34.67;33.33;;;;;21.41;48.84;99832.02;110404;1263;14716;-59
2022/09/26 08:46:43;;;;;;;;;32.00;31.00;;;;;21.45;48.80;99835.66;110427;1263;12470;-58
2022/09/26 08:49:16;;;;;;;;;35.33;33.67;;;;;21.48;48.95;99837.27;110408;1263;13586;-60
2022/09/26 08:51:44;;;;;;;;;35.50;32.00;;;;;21.59;50.88;99832.02;110427;1264;13818;-59
2022/09/26 08:54:11;;;;;;;;;37.33;36.00;;;;;21.65;50.46;99823.66;110489;1264;13145;-58
2022/09/26 08:56:39;;;;;;;;;36.33;35.33;;;;;21.68;49.62;99824.13;110406;1264;14505;-60
2022/09/26 08:59:06;;;;;;;;;32.00;31.00;;;;;21.65;49.55;99825.77;110417;1262;13128;-58
2022/09/26 09:01:34;;;;;;;;;29.33;29.33;;;;;21.67;49.60;99826.06;110431;1265;14042;-58
2022/09/26 09:04:01;;;;;;;;;35.00;33.00;;;;;21.77;49.42;99821.48;110436;1262;15102;-58
2022/09/26 09:06:29;;;;;;;;;34.67;33.33;;;;;21.78;49.35;99817.83;110524;1264;13394;-59
2022/09/26 09:08:57;;;;;;;;;31.67;31.33;;;;;21.80;49.76;99815.73;110388;1264;13191;-58
2022/09/26 09:11:24;;;;;;;;;34.00;31.33;;;;;21.75;49.76;99811.86;110318;1264;14788;-58
2022/09/26 09:13:52;;;;;;;;;31.00;29.33;;;;;21.71;49.69;99815.49;110407;1264;13280;-58
2022/09/26 09:16:19;;;;;;;;;34.67;31.33;;;;;21.68;49.90;99812.30;110411;1264;15161;-59
2022/09/26 09:18:47;;;;;;;;;35.33;31.00;;;;;21.71;49.77;99812.36;110389;1264;13742;-58
2022/09/26 09:21:14;;;;;;;;;32.67;31.33;;;;;21.67;49.81;99807.39;110511;1265;13134;-58
2022/09/26 09:23:42;;;;;;;;;35.00;30.67;;;;;21.67;49.95;99804.49;110414;1265;14220;-58
2022/09/26 09:26:09;;;;;;;;;31.00;28.50;;;;;21.60;50.29;99809.34;110421;1263;14591;-58
2022/09/26 09:28:36;;;;;;;;;34.67;33.00;;;;;21.58;50.58;99807.82;110407;1264;13174;-59
2022/09/26 09:31:04;;;;;;;;;40.50;36.50;;;;;21.49;50.64;99806.66;110416;1263;13189;-59
2022/09/26 09:33:32;;;;;;;;;41.00;37.33;;;;;21.53;50.54;99806.73;110476;1265;13556;-57
2022/09/26 09:35:59;;;;;;;;;36.67;35.33;;;;;21.47;50.69;99807.75;110454;1264;13186;-57
2022/09/26 09:38:27;;;;;;;;;35.00;30.50;;;;;21.48;50.70;99807.79;110513;1262;14256;-59
2022/09/26 09:40:54;;;;;;;;;34.50;30.50;;;;;21.46;50.77;99809.95;110400;1264;14383;-58
2022/09/26 09:43:25;;;;;;;;;33.67;31.67;;;;;21.46;50.80;99809.38;110440;1265;15328;-59
2022/09/26 09:45:53;;;;;;;;;36.67;34.33;;;;;21.42;50.80;99809.02;110441;1264;13334;-59
2022/09/26 09:48:20;;;;;;;;;30.50;27.50;;;;;21.39;50.63;99810.81;110515;1264;13085;-58
2022/09/26 09:50:48;;;;;;;;;27.00;26.00;;;;;21.41;50.69;99805.28;110444;1263;12847;-61
2022/09/26 09:53:15;;;;;;;;;33.50;28.50;;;;;21.39;50.61;99806.50;110430;1264;14064;-58
2022/09/26 09:55:43;;;;;;;;;40.50;35.00;;;;;21.37;50.66;99803.30;110436;1264;15298;-58
2022/09/26 09:58:10;;;;;;;;;36.00;32.00;;;;;21.36;50.50;99800.74;110463;1264;14262;-60
2022/09/26 10:00:40;;;;;;;;;31.00;30.67;;;;;21.42;50.33;99801.10;110390;1264;13227;-56
2022/09/26 10:03:08;;;;;;;;;28.00;27.67;;;;;21.49;50.23;99795.67;110441;1264;13202;-58
2022/09/26 10:05:36;;;;;;;;;35.67;31.00;;;;;21.51;50.24;99794.08;110449;1264;14277;-62
2022/09/26 10:08:09;;;;;;;;;36.00;32.33;;;;;21.51;50.70;99794.67;110455;1262;13242;-58
2022/09/26 10:10:37;;;;;;;;;37.67;32.33;;;;;21.54;50.53;99794.17;110427;1264;13247;-60
2022/09/26 10:13:05;;;;;;;;;37.67;34.33;;;;;21.62;50.41;99794.58;110374;1264;14389;-59
2022/09/26 10:15:33;;;;;;;;;32.33;30.33;;;;;21.68;50.43;99795.61;110418;1265;13237;-57
2022/09/26 10:18:00;;;;;;;;;38.00;34.67;;;;;21.71;50.38;99795.11;110385;1264;13089;-60
2022/09/26 10:20:28;;;;;;;;;31.67;28.33;;;;;21.39;50.34;99789.93;110266;1264;14259;-58
2022/09/26 10:22:56;;;;;;;;;30.00;27.00;;;;;21.45;50.53;99789.77;110417;1264;13605;-59
2022/09/26 10:25:24;;;;;;;;;35.00;33.00;;;;;21.56;50.72;99790.41;110485;1262;13092;-60
2022/09/26 10:27:51;;;;;;;;;37.67;33.00;;;;;21.61;50.51;99783.88;110451;1262;14337;-60
2022/09/26 10:30:19;;;;;;;;;35.00;31.33;;;;;21.69;50.18;99783.65;110472;1264;13272;-58
2022/09/26 10:32:47;;;;;;;;;41.33;36.00;;;;;21.71;50.20;99784.74;110457;1262;14145;-60
2022/09/26 10:35:17;;;;;;;;;33.33;30.67;;;;;21.46;50.35;99784.08;110418;1265;13997;-56
2022/09/26 10:37:44;;;;;;;;;33.00;32.50;;;;;21.51;50.30;99781.46;110431;1264;13734;-59
2022/09/26 10:42:57;;;;;;;;;31.67;29.00;;;;;21.66;50.01;99774.88;110449;1264;14065;-60
2022/09/26 10:45:28;;;;;;;;;31.00;30.00;;;;;21.67;50.12;99769.71;110506;1264;13157;-56
2022/09/26 10:47:56;;;;;;;;;36.67;32.33;;;;;21.64;50.16;99771.13;110405;1264;13288;-57
2022/09/26 10:50:25;;;;;;;;;32.00;30.00;;;;;21.64;50.16;99771.42;110486;1264;13925;-59
2022/09/26 10:52:52;;;;;;;;;33.50;31.00;;;;;21.59;50.20;99772.30;110473;1264;15106;-58
2022/09/26 10:55:20;;;;;;;;;31.00;29.33;;;;;21.57;50.17;99771.45;110479;1264;13811;-60
2022/09/26 10:57:47;;;;;;;;;35.00;33.00;;;;;21.60;50.06;99768.32;110416;1264;13142;-57
2022/09/26 11:00:15;;;;;;;;;30.33;27.67;;;;;21.60;49.98;99772.05;110456;1264;13198;-57
2022/09/26 11:02:43;;;;;;;;;38.00;36.00;;;;;21.46;50.07;99773.77;110449;1262;13147;-57
2022/09/26 11:07:55;;;;;;;;;47.33;42.00;;;;;21.51;50.48;99770.14;110404;1265;13658;-59
2022/09/26 11:10:23;;;;;;;;;34.00;31.67;;;;;21.52;50.91;99772.73;110448;1265;13417;-59
2022/09/26 11:12:50;;;;;;;;;43.33;36.67;;;;;21.54;50.97;99773.38;110476;1264;13241;-57
2022/09/26 11:15:18;;;;;;;;;40.67;37.67;;;;;21.57;50.94;99772.07;110432;1264;13284;-62
2022/09/26 11:17:46;;;;;;;;;39.67;37.67;;;;;21.59;51.25;99774.23;110373;1263;13187;-59
2022/09/26 11:20:14;;;;;;;;;36.33;34.33;;;;;21.57;51.52;99775.77;110380;1263;13165;-60
2022/09/26 11:22:42;;;;;;;;;47.33;40.33;;;;;21.57;51.69;99773.49;110443;1263;13304;-57
2022/09/26 11:25:09;;;;;;;;;47.00;39.50;;;;;21.57;51.84;99768.05;110420;1264;13287;-57
2022/09/26 11:27:42;;;;;;;;;41.50;38.50;;;;;21.47;51.85;99767.02;110421;1264;13268;-58
2022/09/26 11:30:09;;;;;;;;;41.33;36.00;;;;;21.53;51.54;99762.64;110387;1264;13198;-59
2022/09/26 11:32:39;;;;;;;;;42.00;36.00;;;;;21.51;51.41;99762.33;110448;1262;14722;-56
2022/09/26 11:35:07;;;;;;;;;32.50;31.00;;;;;21.51;51.13;99753.48;110451;1264;13415;-60